createdAt,value
2023-01-26T00:04:00.157Z,92.58
2023-01-26T00:09:03.556Z,92.70
2023-01-26T00:14:06.151Z,92.87
2023-01-26T00:19:08.852Z,92.95
2023-01-26T00:24:11.548Z,93.06
2023-01-26T00:29:14.176Z,93.40
2023-01-26T00:34:16.760Z,93.00
2023-01-26T00:39:19.398Z,92.89
2023-01-26T00:51:20.025Z,92.99
2023-01-26T00:56:22.828Z,92.94
2023-01-26T01:01:25.408Z,93.27
2023-01-26T01:06:27.977Z,92.89
2023-01-26T01:11:30.644Z,92.87
2023-01-26T01:16:33.365Z,92.99
2023-01-26T01:21:36.395Z,92.75
2023-01-26T01:26:39.713Z,92.93
2023-01-26T01:31:43.338Z,93.19
2023-01-26T01:36:46.221Z,93.24
2023-01-26T01:41:48.812Z,93.12
2023-01-26T01:46:54.390Z,93.40
2023-01-26T01:52:04.650Z,93.85
2023-01-26T01:57:15.500Z,93.65
2023-01-26T02:02:18.482Z,93.72
2023-01-26T02:07:21.429Z,93.65
2023-01-26T02:12:29.344Z,93.84
2023-01-26T02:17:31.996Z,94.19
2023-01-26T02:22:37.500Z,94.50
2023-01-26T02:27:40.373Z,94.17
2023-01-26T02:32:43.001Z,94.03
2023-01-26T02:37:45.697Z,94.16
2023-01-26T02:42:48.345Z,94.60
2023-01-26T02:47:50.985Z,94.31
2023-01-26T02:52:53.587Z,94.29
2023-01-26T02:57:57.611Z,94.47
2023-01-26T03:03:02.225Z,94.52
2023-01-26T03:08:06.112Z,94.99
2023-01-26T03:13:08.986Z,95.05
2023-01-26T03:18:34.562Z,94.70
2023-01-26T03:23:40.148Z,94.97
2023-01-26T03:28:42.725Z,95.36
2023-01-26T03:33:45.316Z,95.63
2023-01-26T03:38:48.016Z,95.79
2023-01-26T03:43:53.529Z,95.38
2023-01-26T03:48:59.026Z,95.21
2023-01-26T03:54:04.553Z,95.09
2023-01-26T03:59:08.419Z,94.74
2023-01-26T04:04:14.214Z,95.62
2023-01-26T04:09:16.926Z,95.33
2023-01-26T04:14:50.834Z,94.93
2023-01-26T04:19:56.505Z,95.56
2023-01-26T04:24:59.295Z,95.07
2023-01-26T04:30:03.570Z,95.52
2023-01-26T04:35:07.178Z,95.45
2023-01-26T04:40:10.869Z,95.41
2023-01-26T04:45:13.670Z,95.45
2023-01-26T04:50:16.351Z,95.63
2023-01-26T04:55:18.950Z,95.85
2023-01-26T05:00:21.688Z,95.93
2023-01-26T05:05:24.381Z,95.60
2023-01-26T05:10:27.041Z,95.93
2023-01-26T05:15:29.616Z,95.96
2023-01-26T05:20:34.842Z,95.38
2023-01-26T05:25:37.503Z,94.80
2023-01-26T05:30:40.520Z,95.12
2023-01-26T05:35:43.177Z,95.52
2023-01-26T05:40:46.020Z,95.32
2023-01-26T05:45:48.762Z,94.90
2023-01-26T05:50:51.545Z,94.73
2023-01-26T05:55:54.237Z,94.74
2023-01-26T06:00:57.411Z,95.15
2023-01-26T06:06:00.476Z,95.28
2023-01-26T06:11:03.390Z,94.62
2023-01-26T06:16:06.345Z,94.39
2023-01-26T06:21:08.958Z,94.83
2023-01-26T06:26:11.777Z,94.58
2023-01-26T06:31:14.607Z,94.82
2023-01-26T06:36:17.399Z,94.62
2023-01-26T06:41:20.036Z,94.63
2023-01-26T06:46:22.818Z,95.10
2023-01-26T06:51:46.734Z,95.41
2023-01-26T06:56:49.349Z,95.27
2023-01-26T07:01:52.041Z,94.94
2023-01-26T07:06:54.679Z,94.82
2023-01-26T07:11:57.255Z,94.39
2023-01-26T07:16:59.861Z,94.72
2023-01-26T07:22:02.750Z,94.96
2023-01-26T07:27:05.455Z,94.31
2023-01-26T07:32:08.058Z,94.80
2023-01-26T07:37:10.650Z,94.28
2023-01-26T07:42:13.229Z,93.72
2023-01-26T07:47:15.968Z,94.29
2023-01-26T07:52:18.657Z,94.66
2023-01-26T07:57:21.241Z,93.75
2023-01-26T08:02:23.832Z,94.04
2023-01-26T08:07:44.824Z,94.23
2023-01-26T08:12:47.425Z,94.10
2023-01-26T08:17:50.016Z,94.31
2023-01-26T08:22:53.877Z,94.15
2023-01-26T08:27:56.655Z,93.80
2023-01-26T08:32:59.264Z,93.90
2023-01-26T08:38:02.176Z,93.92
2023-01-26T08:43:04.862Z,93.10
2023-01-26T08:48:07.481Z,92.58
2023-01-26T08:53:10.559Z,92.47
2023-01-26T08:58:13.367Z,92.22
2023-01-26T09:03:16.066Z,92.61
2023-01-26T09:08:18.687Z,92.08
2023-01-26T09:13:21.447Z,91.74
2023-01-26T09:18:24.073Z,90.52
2023-01-26T09:23:26.693Z,91.12
2023-01-26T09:28:29.397Z,90.79
2023-01-26T09:33:33.011Z,90.89
2023-01-26T09:38:35.848Z,90.22
2023-01-26T09:43:43.542Z,90.82
2023-01-26T09:48:57.222Z,91.10
2023-01-26T09:54:15.863Z,91.02
2023-01-26T09:59:24.277Z,90.38
2023-01-26T10:04:36.325Z,90.11
2023-01-26T10:09:41.237Z,89.75
2023-01-26T10:14:51.319Z,89.00
2023-01-26T10:20:00.323Z,88.55
2023-01-26T10:25:11.413Z,89.08
2023-01-26T10:30:18.928Z,89.70
2023-01-26T10:35:24.905Z,88.97
2023-01-26T10:40:27.536Z,89.69
2023-01-26T10:45:32.601Z,88.44
2023-01-26T10:50:38.467Z,89.00
2023-01-26T10:55:41.437Z,89.67
2023-01-26T11:00:44.071Z,88.81
2023-01-26T11:06:05.990Z,89.46
2023-01-26T11:11:26.417Z,90.19
2023-01-26T11:16:31.600Z,89.93
2023-01-26T11:21:39.158Z,89.93
2023-01-26T11:26:43.715Z,89.98
2023-01-26T11:31:55.126Z,90.36
2023-01-26T11:36:58.778Z,90.97
2023-01-26T11:42:07.170Z,90.79
2023-01-26T11:47:38.712Z,90.52
2023-01-26T11:52:51.045Z,90.68
2023-01-26T11:57:53.585Z,90.27
2023-01-26T12:03:00.933Z,90.54
2023-01-26T12:08:12.559Z,90.22
2023-01-26T12:13:33.454Z,90.76
2023-01-26T12:18:53.018Z,90.60
2023-01-26T12:24:02.246Z,90.21
2023-01-26T12:29:09.878Z,90.20
2023-01-26T12:34:14.004Z,90.20
2023-01-26T12:39:31.467Z,89.60
2023-01-26T12:44:37.016Z,89.44
2023-01-26T12:50:00.895Z,89.91
2023-01-26T12:55:13.291Z,89.16
2023-01-26T13:00:30.194Z,89.67
2023-01-26T13:05:35.469Z,89.86
2023-01-26T13:10:49.422Z,89.70
2023-01-26T13:16:14.816Z,90.14
2023-01-26T13:21:40.599Z,90.68
2023-01-26T13:26:45.411Z,91.17
2023-01-26T13:31:48.059Z,91.36
2023-01-26T13:36:53.079Z,91.47
2023-01-26T13:41:55.853Z,90.82
2023-01-26T13:47:07.864Z,91.05
2023-01-26T13:52:19.092Z,91.08
2023-01-26T13:57:25.611Z,91.48
2023-01-26T14:02:31.432Z,91.45
2023-01-26T14:07:44.311Z,91.52
2023-01-26T14:12:51.610Z,92.11
2023-01-26T14:18:01.290Z,91.87
2023-01-26T14:23:06.838Z,92.70
2023-01-26T14:28:15.812Z,92.87
2023-01-26T14:33:18.634Z,92.72
2023-01-26T14:38:21.744Z,93.22
2023-01-26T14:43:25.526Z,93.88
2023-01-26T14:48:34.980Z,94.17
2023-01-26T14:53:37.804Z,93.73
2023-01-26T14:58:41.379Z,94.08
2023-01-26T15:03:44.001Z,94.21
2023-01-26T15:08:58.429Z,94.60
2023-01-26T15:14:03.619Z,94.21
2023-01-26T15:19:07.821Z,94.38
2023-01-26T15:24:14.849Z,94.56
2023-01-26T15:29:35.005Z,94.75
2023-01-26T15:34:39.083Z,94.48
2023-01-26T15:39:41.767Z,95.38
2023-01-26T15:44:44.395Z,95.51
2023-01-26T15:49:47.112Z,95.15
2023-01-26T15:54:51.705Z,94.55
2023-01-26T15:59:54.330Z,95.07
2023-01-26T16:04:56.914Z,95.06
2023-01-26T16:10:01.087Z,94.82
2023-01-26T16:15:18.120Z,95.19
2023-01-26T16:20:20.797Z,94.83
2023-01-26T16:25:27.293Z,94.70
2023-01-26T16:30:29.892Z,94.72
2023-01-26T16:35:32.563Z,94.76
2023-01-26T16:40:35.252Z,94.74
2023-01-26T16:45:37.956Z,95.27
2023-01-26T16:50:44.574Z,95.29
2023-01-26T16:55:47.205Z,95.78
2023-01-26T17:00:49.899Z,96.10
2023-01-26T17:05:55.851Z,95.77
2023-01-26T17:11:02.543Z,95.38
2023-01-26T17:16:08.567Z,95.58
2023-01-26T17:21:14.806Z,95.54
2023-01-26T17:26:18.127Z,95.56
2023-01-26T17:31:22.886Z,95.90
2023-01-26T17:36:25.509Z,95.89
2023-01-26T17:41:28.645Z,95.71
2023-01-26T17:46:31.282Z,95.70
2023-01-26T17:51:33.856Z,95.42
2023-01-26T17:56:36.458Z,95.85
2023-01-26T18:01:39.233Z,96.20
2023-01-26T18:06:41.897Z,96.74
2023-01-26T18:11:44.587Z,96.28
2023-01-26T18:16:48.412Z,96.82
2023-01-26T18:21:51.281Z,97.14
2023-01-26T18:26:53.928Z,97.33
2023-01-26T18:31:56.570Z,97.51
2023-01-26T18:36:59.371Z,97.72
2023-01-26T18:42:02.042Z,98.00
2023-01-26T18:47:04.881Z,98.00
2023-01-26T18:52:07.538Z,98.07
2023-01-26T18:57:10.190Z,97.78
2023-01-26T19:02:13.809Z,98.08
2023-01-26T19:07:16.558Z,97.93
2023-01-26T19:12:19.131Z,98.22
2023-01-26T19:17:21.830Z,98.28
2023-01-26T19:22:24.463Z,98.09
2023-01-26T19:27:30.388Z,98.47
2023-01-26T19:32:32.982Z,98.59
2023-01-26T19:37:35.571Z,98.00
2023-01-26T19:42:38.223Z,97.96
2023-01-26T19:47:41.666Z,97.96
2023-01-26T19:52:44.295Z,97.34
2023-01-26T19:57:46.908Z,96.77
2023-01-26T20:02:49.589Z,97.65
2023-01-26T20:07:52.854Z,97.67
2023-01-26T20:12:57.615Z,97.29
2023-01-26T20:18:00.198Z,97.90
2023-01-26T20:23:03.004Z,98.03
2023-01-26T20:28:06.252Z,96.96
2023-01-26T20:33:11.147Z,96.65
2023-01-26T20:38:13.737Z,97.19
2023-01-26T20:43:16.399Z,97.76
2023-01-26T20:48:21.415Z,98.20
2023-01-26T20:53:24.165Z,97.99
2023-01-26T20:58:26.754Z,97.84
2023-01-26T21:03:29.353Z,98.11
2023-01-26T21:08:34.604Z,98.21
2023-01-26T21:13:37.878Z,97.95
2023-01-26T21:18:40.913Z,98.27
2023-01-26T21:23:44.158Z,98.44
2023-01-26T21:28:53.717Z,98.79
2023-01-26T21:33:58.515Z,98.98
2023-01-26T21:39:01.783Z,98.96
2023-01-26T21:44:06.962Z,98.84
2023-01-26T21:49:09.858Z,98.76
2023-01-26T21:54:14.011Z,98.63
2023-01-26T21:59:18.146Z,98.40
2023-01-26T22:04:26.010Z,98.63
2023-01-26T22:09:29.874Z,97.70
2023-01-26T22:14:32.500Z,97.63
2023-01-26T22:19:35.099Z,98.14
2023-01-26T22:24:37.694Z,98.26
2023-01-26T22:29:42.698Z,97.67
2023-01-26T22:34:45.360Z,97.62
2023-01-26T22:39:48.959Z,97.96
2023-01-26T22:44:51.634Z,97.64
2023-01-26T22:49:54.223Z,98.08
2023-01-26T22:54:56.845Z,98.13
2023-01-26T22:59:59.492Z,98.32
2023-01-26T23:05:02.116Z,98.41
2023-01-26T23:10:05.370Z,98.06
2023-01-26T23:15:08.569Z,98.07
2023-01-26T23:20:14.152Z,97.58
2023-01-26T23:25:19.895Z,97.57
2023-01-26T23:30:22.536Z,97.84
2023-01-26T23:35:26.627Z,97.75
2023-01-26T23:40:29.658Z,97.90
2023-01-26T23:45:32.869Z,97.93
2023-01-26T23:50:38.068Z,98.07
2023-01-26T23:55:42.601Z,98.41
